fecha-hora | temperatura | viento dirección-velocidad-rachas | humedad | presión

  • 11-04-2019 21:00:00 | 12.90°C | Noroeste-11.00 km/h - 30.00 km/h | 82.00% | 1020.70 hPa
  • 11-04-2019 20:00:00 | 13.90°C | Oeste-13.00 km/h - 30.00 km/h | 74.00% | 1020.40 hPa
  • 11-04-2019 19:00:00 | 14.60°C | Noroeste-13.00 km/h - 26.00 km/h | 69.00% | 1020.30 hPa
  • 11-04-2019 18:00:00 | 14.80°C | Noroeste-15.00 km/h - 26.00 km/h | 72.00% | 1020.00 hPa
  • 11-04-2019 17:00:00 | 16.00°C | Noroeste-15.00 km/h - 30.00 km/h | 68.00% | 1019.70 hPa
  • 11-04-2019 16:00:00 | 15.60°C | Noroeste-15.00 km/h - 26.00 km/h | 73.00% | 1019.70 hPa
  • 11-04-2019 15:00:00 | 15.30°C | Oeste-17.00 km/h - 30.00 km/h | 72.00% | 1019.90 hPa
  • 11-04-2019 14:00:00 | 14.60°C | Oeste-15.00 km/h - 26.00 km/h | 73.00% | 1019.90 hPa
  • 11-04-2019 13:00:00 | 13.80°C | Noroeste-12.00 km/h - 22.00 km/h | 78.00% | 1020.00 hPa
  • 11-04-2019 12:00:00 | 13.80°C | Oeste-14.00 km/h - 30.00 km/h | 76.00% | 1020.00 hPa
  • 11-04-2019 11:00:00 | 13.20°C | Noroeste-18.00 km/h - 33.00 km/h | 82.00% | 1019.70 hPa
  • 11-04-2019 10:00:00 | 12.30°C | Oeste-12.00 km/h - 26.00 km/h | 83.00% | 1019.40 hPa
  • 11-04-2019 09:00:00 | 11.90°C | Oeste-14.00 km/h - 30.00 km/h | 83.00% | 1019.20 hPa
  • 11-04-2019 08:00:00 | 12.20°C | Oeste-18.00 km/h - 33.00 km/h | 85.00% | 1018.60 hPa
  • 11-04-2019 07:00:00 | 12.80°C | Oeste-9.00 km/h - 21.00 km/h | 78.00% | 1018.30 hPa
  • 11-04-2019 06:00:00 | 12.40°C | Oeste-9.00 km/h - 17.00 km/h | 79.00% | 1018.70 hPa
  • 11-04-2019 05:00:00 | 12.30°C | Noroeste-8.00 km/h - 21.00 km/h | 78.00% | 1018.70 hPa
  • 11-04-2019 04:00:00 | 12.70°C | Noroeste-10.00 km/h - 21.00 km/h | 77.00% | 1018.60 hPa
  • 11-04-2019 03:00:00 | 12.80°C | Noroeste-10.00 km/h - 17.00 km/h | 78.00% | 1018.60 hPa
  • 11-04-2019 02:00:00 | 13.10°C | Noroeste-10.00 km/h - 21.00 km/h | 80.00% | 1018.90 hPa
  • 11-04-2019 01:00:00 | 13.00°C | Noroeste-10.00 km/h - 21.00 km/h | 80.00% | 1018.90 hPa
  • 11-04-2019 00:00:00 | 13.20°C | Noroeste-11.00 km/h - 22.00 km/h | 80.00% | 1018.50 hPa
  • 10-04-2019 23:00:00 | 13.30°C | Noroeste-11.00 km/h - 24.00 km/h | 81.00% | 1018.30 hPa
  • 10-04-2019 22:00:00 | 13.80°C | Noroeste-11.00 km/h - 22.00 km/h | 81.00% | 1017.90 hPa
    • diseño web asturias Información sobre el estado de las mareas, altura de la marejada, temperatura del agua y otros datos de Gijón en Asturias.

      Surf Gijón